sensor_id;sensor_type;location;lat;lon;timestamp;P1;durP1;ratioP1;P2;durP2;ratioP2
77736;SDS011;66903;59.926;30.404;2023-12-04T00:04:10;4.53;;;1.50;;
77736;SDS011;66903;59.926;30.404;2023-12-04T00:09:21;4.78;;;1.70;;
77736;SDS011;66903;59.926;30.404;2023-12-04T00:14:34;4.05;;;1.48;;
77736;SDS011;66903;59.926;30.404;2023-12-04T00:19:45;3.90;;;1.50;;
77736;SDS011;66903;59.926;30.404;2023-12-04T00:24:56;3.30;;;1.45;;
77736;SDS011;66903;59.926;30.404;2023-12-04T00:30:07;3.83;;;1.65;;
77736;SDS011;66903;59.926;30.404;2023-12-04T00:35:18;3.17;;;1.42;;
77736;SDS011;66903;59.926;30.404;2023-12-04T00:40:29;3.97;;;1.40;;
77736;SDS011;66903;59.926;30.404;2023-12-04T00:45:39;4.72;;;1.55;;
77736;SDS011;66903;59.926;30.404;2023-12-04T00:50:51;3.50;;;1.30;;
77736;SDS011;66903;59.926;30.404;2023-12-04T00:56:02;3.17;;;1.15;;
77736;SDS011;66903;59.926;30.404;2023-12-04T01:01:12;3.38;;;1.30;;
77736;SDS011;66903;59.926;30.404;2023-12-04T01:06:25;4.03;;;1.40;;
77736;SDS011;66903;59.926;30.404;2023-12-04T01:11:36;3.50;;;1.48;;
77736;SDS011;66903;59.926;30.404;2023-12-04T01:16:47;3.90;;;1.35;;
77736;SDS011;66903;59.926;30.404;2023-12-04T01:21:58;3.60;;;1.40;;
77736;SDS011;66903;59.926;30.404;2023-12-04T01:27:08;3.65;;;1.20;;
77736;SDS011;66903;59.926;30.404;2023-12-04T01:32:19;4.55;;;1.40;;
77736;SDS011;66903;59.926;30.404;2023-12-04T01:37:30;3.63;;;1.38;;
77736;SDS011;66903;59.926;30.404;2023-12-04T01:42:42;3.65;;;1.30;;
77736;SDS011;66903;59.926;30.404;2023-12-04T01:47:53;3.50;;;1.02;;
77736;SDS011;66903;59.926;30.404;2023-12-04T01:53:04;3.75;;;1.60;;
77736;SDS011;66903;59.926;30.404;2023-12-04T01:58:15;4.82;;;1.40;;
77736;SDS011;66903;59.926;30.404;2023-12-04T02:03:27;3.88;;;1.40;;
77736;SDS011;66903;59.926;30.404;2023-12-04T02:08:40;3.83;;;1.58;;
77736;SDS011;66903;59.926;30.404;2023-12-04T02:13:51;3.92;;;1.35;;
77736;SDS011;66903;59.926;30.404;2023-12-04T02:19:03;3.13;;;1.35;;
77736;SDS011;66903;59.926;30.404;2023-12-04T02:24:14;3.35;;;1.30;;
77736;SDS011;66903;59.926;30.404;2023-12-04T02:29:26;4.05;;;1.20;;
77736;SDS011;66903;59.926;30.404;2023-12-04T02:34:46;4.68;;;1.60;;
77736;SDS011;66903;59.926;30.404;2023-12-04T02:39:59;4.35;;;1.27;;
77736;SDS011;66903;59.926;30.404;2023-12-04T02:45:10;3.70;;;1.45;;
77736;SDS011;66903;59.926;30.404;2023-12-04T02:50:21;3.88;;;1.42;;
77736;SDS011;66903;59.926;30.404;2023-12-04T02:55:32;3.70;;;1.30;;
77736;SDS011;66903;59.926;30.404;2023-12-04T03:00:43;3.85;;;1.50;;
77736;SDS011;66903;59.926;30.404;2023-12-04T03:05:53;3.60;;;1.30;;
77736;SDS011;66903;59.926;30.404;2023-12-04T03:11:04;3.90;;;1.40;;
77736;SDS011;66903;59.926;30.404;2023-12-04T03:16:16;3.30;;;1.40;;
77736;SDS011;66903;59.926;30.404;2023-12-04T03:21:27;3.83;;;1.38;;
77736;SDS011;66903;59.926;30.404;2023-12-04T03:26:39;2.95;;;1.20;;
77736;SDS011;66903;59.926;30.404;2023-12-04T03:31:50;4.07;;;1.42;;
77736;SDS011;66903;59.926;30.404;2023-12-04T03:37:01;2.90;;;1.13;;
77736;SDS011;66903;59.926;30.404;2023-12-04T03:42:12;3.72;;;1.48;;
77736;SDS011;66903;59.926;30.404;2023-12-04T03:47:23;2.90;;;1.23;;
77736;SDS011;66903;59.926;30.404;2023-12-04T03:52:35;4.10;;;1.33;;
77736;SDS011;66903;59.926;30.404;2023-12-04T03:57:46;3.60;;;1.38;;
77736;SDS011;66903;59.926;30.404;2023-12-04T04:02:57;3.08;;;1.20;;
77736;SDS011;66903;59.926;30.404;2023-12-04T04:08:07;3.35;;;1.23;;
77736;SDS011;66903;59.926;30.404;2023-12-04T04:13:18;3.03;;;1.02;;
77736;SDS011;66903;59.926;30.404;2023-12-04T04:18:29;3.42;;;1.15;;
77736;SDS011;66903;59.926;30.404;2023-12-04T04:23:40;3.50;;;1.38;;
77736;SDS011;66903;59.926;30.404;2023-12-04T04:28:51;3.00;;;1.05;;
77736;SDS011;66903;59.926;30.404;2023-12-04T04:34:01;3.30;;;1.15;;
77736;SDS011;66903;59.926;30.404;2023-12-04T04:39:13;3.35;;;1.15;;
77736;SDS011;66903;59.926;30.404;2023-12-04T04:44:24;6.75;;;1.55;;
77736;SDS011;66903;59.926;30.404;2023-12-04T04:49:34;4.93;;;1.25;;
77736;SDS011;66903;59.926;30.404;2023-12-04T04:54:45;3.58;;;1.23;;
77736;SDS011;66903;59.926;30.404;2023-12-04T04:59:56;5.82;;;1.27;;
77736;SDS011;66903;59.926;30.404;2023-12-04T05:05:07;4.47;;;1.40;;
77736;SDS011;66903;59.926;30.404;2023-12-04T05:10:18;4.00;;;1.30;;
77736;SDS011;66903;59.926;30.404;2023-12-04T05:15:29;5.65;;;1.40;;
77736;SDS011;66903;59.926;30.404;2023-12-04T05:20:40;3.60;;;1.33;;
77736;SDS011;66903;59.926;30.404;2023-12-04T05:25:51;3.67;;;1.30;;
77736;SDS011;66903;59.926;30.404;2023-12-04T05:31:01;7.30;;;1.60;;
77736;SDS011;66903;59.926;30.404;2023-12-04T05:36:12;3.30;;;1.20;;
77736;SDS011;66903;59.926;30.404;2023-12-04T05:41:23;3.92;;;1.60;;
77736;SDS011;66903;59.926;30.404;2023-12-04T05:46:34;3.97;;;1.33;;
77736;SDS011;66903;59.926;30.404;2023-12-04T05:51:45;3.33;;;1.20;;
77736;SDS011;66903;59.926;30.404;2023-12-04T05:56:56;4.65;;;1.63;;
77736;SDS011;66903;59.926;30.404;2023-12-04T06:02:07;4.30;;;1.60;;
77736;SDS011;66903;59.926;30.404;2023-12-04T06:07:18;3.22;;;1.30;;
77736;SDS011;66903;59.926;30.404;2023-12-04T06:12:28;6.00;;;1.48;;
77736;SDS011;66903;59.926;30.404;2023-12-04T06:17:39;3.80;;;1.67;;
77736;SDS011;66903;59.926;30.404;2023-12-04T06:22:50;7.97;;;1.42;;
77736;SDS011;66903;59.926;30.404;2023-12-04T06:28:01;4.18;;;1.38;;
77736;SDS011;66903;59.926;30.404;2023-12-04T06:33:12;3.65;;;1.30;;
77736;SDS011;66903;59.926;30.404;2023-12-04T06:38:25;4.68;;;1.45;;
77736;SDS011;66903;59.926;30.404;2023-12-04T06:43:36;3.55;;;1.30;;
77736;SDS011;66903;59.926;30.404;2023-12-04T06:48:47;4.00;;;1.40;;
77736;SDS011;66903;59.926;30.404;2023-12-04T06:53:58;3.80;;;1.30;;
77736;SDS011;66903;59.926;30.404;2023-12-04T06:59:09;2.90;;;1.00;;
77736;SDS011;66903;59.926;30.404;2023-12-04T07:04:20;3.70;;;1.48;;
77736;SDS011;66903;59.926;30.404;2023-12-04T07:09:32;3.63;;;1.30;;
77736;SDS011;66903;59.926;30.404;2023-12-04T07:14:43;2.63;;;1.00;;
77736;SDS011;66903;59.926;30.404;2023-12-04T07:19:54;3.30;;;1.10;;
77736;SDS011;66903;59.926;30.404;2023-12-04T07:25:05;4.18;;;1.00;;
77736;SDS011;66903;59.926;30.404;2023-12-04T07:30:19;8.70;;;1.33;;
77736;SDS011;66903;59.926;30.404;2023-12-04T07:35:31;4.18;;;1.38;;
77736;SDS011;66903;59.926;30.404;2023-12-04T07:40:41;4.20;;;1.20;;
77736;SDS011;66903;59.926;30.404;2023-12-04T07:45:54;3.63;;;1.30;;
77736;SDS011;66903;59.926;30.404;2023-12-04T07:51:06;5.95;;;1.55;;
77736;SDS011;66903;59.926;30.404;2023-12-04T07:56:17;3.95;;;1.40;;
77736;SDS011;66903;59.926;30.404;2023-12-04T08:01:28;3.95;;;1.40;;
77736;SDS011;66903;59.926;30.404;2023-12-04T08:06:39;3.55;;;1.30;;
77736;SDS011;66903;59.926;30.404;2023-12-04T08:11:50;3.00;;;1.20;;
77736;SDS011;66903;59.926;30.404;2023-12-04T08:17:01;4.70;;;1.67;;
77736;SDS011;66903;59.926;30.404;2023-12-04T08:22:11;4.78;;;1.67;;
77736;SDS011;66903;59.926;30.404;2023-12-04T08:27:22;3.35;;;1.23;;
77736;SDS011;66903;59.926;30.404;2023-12-04T08:32:33;3.70;;;1.38;;
77736;SDS011;66903;59.926;30.404;2023-12-04T08:37:44;3.95;;;1.42;;
77736;SDS011;66903;59.926;30.404;2023-12-04T08:42:55;4.90;;;1.60;;
77736;SDS011;66903;59.926;30.404;2023-12-04T08:48:06;4.75;;;1.55;;
77736;SDS011;66903;59.926;30.404;2023-12-04T08:53:16;7.45;;;1.70;;
77736;SDS011;66903;59.926;30.404;2023-12-04T08:58:27;3.50;;;1.15;;
77736;SDS011;66903;59.926;30.404;2023-12-04T09:03:38;4.35;;;1.60;;
77736;SDS011;66903;59.926;30.404;2023-12-04T09:08:49;3.70;;;1.50;;
77736;SDS011;66903;59.926;30.404;2023-12-04T09:14:00;4.10;;;1.40;;
77736;SDS011;66903;59.926;30.404;2023-12-04T09:19:10;4.70;;;1.70;;
77736;SDS011;66903;59.926;30.404;2023-12-04T09:24:21;4.25;;;1.65;;
77736;SDS011;66903;59.926;30.404;2023-12-04T09:29:33;5.38;;;1.55;;
77736;SDS011;66903;59.926;30.404;2023-12-04T09:34:44;3.72;;;1.33;;
77736;SDS011;66903;59.926;30.404;2023-12-04T09:39:55;4.40;;;1.70;;
77736;SDS011;66903;59.926;30.404;2023-12-04T09:45:06;4.30;;;1.40;;
77736;SDS011;66903;59.926;30.404;2023-12-04T09:50:19;3.83;;;1.45;;
77736;SDS011;66903;59.926;30.404;2023-12-04T09:55:31;6.00;;;2.00;;
77736;SDS011;66903;59.926;30.404;2023-12-04T10:00:42;6.53;;;1.73;;
77736;SDS011;66903;59.926;30.404;2023-12-04T10:05:54;3.88;;;1.40;;
77736;SDS011;66903;59.926;30.404;2023-12-04T10:11:05;3.53;;;1.25;;
77736;SDS011;66903;59.926;30.404;2023-12-04T10:16:37;4.18;;;1.33;;
77736;SDS011;66903;59.926;30.404;2023-12-04T10:21:48;3.47;;;1.35;;
77736;SDS011;66903;59.926;30.404;2023-12-04T10:27:00;4.07;;;1.70;;
77736;SDS011;66903;59.926;30.404;2023-12-04T10:32:22;4.35;;;1.48;;
77736;SDS011;66903;59.926;30.404;2023-12-04T10:37:32;3.40;;;1.15;;
77736;SDS011;66903;59.926;30.404;2023-12-04T10:42:47;3.97;;;1.48;;
77736;SDS011;66903;59.926;30.404;2023-12-04T10:47:57;4.00;;;1.30;;
77736;SDS011;66903;59.926;30.404;2023-12-04T10:53:09;3.72;;;1.50;;
77736;SDS011;66903;59.926;30.404;2023-12-04T11:03:36;3.72;;;1.38;;
77736;SDS011;66903;59.926;30.404;2023-12-04T11:08:54;5.45;;;1.60;;
77736;SDS011;66903;59.926;30.404;2023-12-04T11:14:08;3.85;;;1.45;;
77736;SDS011;66903;59.926;30.404;2023-12-04T11:19:23;4.00;;;1.40;;
77736;SDS011;66903;59.926;30.404;2023-12-04T11:24:52;4.55;;;1.70;;
77736;SDS011;66903;59.926;30.404;2023-12-04T11:30:04;4.70;;;1.83;;
77736;SDS011;66903;59.926;30.404;2023-12-04T11:35:17;4.57;;;1.65;;
77736;SDS011;66903;59.926;30.404;2023-12-04T11:40:28;6.10;;;1.77;;
77736;SDS011;66903;59.926;30.404;2023-12-04T11:45:39;4.85;;;1.70;;
77736;SDS011;66903;59.926;30.404;2023-12-04T11:50:50;4.07;;;1.52;;
77736;SDS011;66903;59.926;30.404;2023-12-04T11:56:07;7.55;;;1.75;;
77736;SDS011;66903;59.926;30.404;2023-12-04T12:01:20;4.95;;;2.00;;
77736;SDS011;66903;59.926;30.404;2023-12-04T12:06:31;5.38;;;1.92;;
77736;SDS011;66903;59.926;30.404;2023-12-04T12:11:42;5.78;;;1.92;;
77736;SDS011;66903;59.926;30.404;2023-12-04T12:16:54;4.40;;;1.70;;
77736;SDS011;66903;59.926;30.404;2023-12-04T12:22:05;4.80;;;1.73;;
77736;SDS011;66903;59.926;30.404;2023-12-04T12:27:16;4.63;;;1.80;;
77736;SDS011;66903;59.926;30.404;2023-12-04T12:32:27;4.00;;;1.52;;
77736;SDS011;66903;59.926;30.404;2023-12-04T12:37:38;3.90;;;1.42;;
77736;SDS011;66903;59.926;30.404;2023-12-04T12:42:50;6.68;;;1.90;;
77736;SDS011;66903;59.926;30.404;2023-12-04T12:48:02;3.92;;;1.70;;
77736;SDS011;66903;59.926;30.404;2023-12-04T12:53:13;4.80;;;1.80;;
77736;SDS011;66903;59.926;30.404;2023-12-04T12:58:24;4.00;;;1.67;;
77736;SDS011;66903;59.926;30.404;2023-12-04T13:03:35;5.85;;;1.58;;
77736;SDS011;66903;59.926;30.404;2023-12-04T13:08:47;4.53;;;1.90;;
77736;SDS011;66903;59.926;30.404;2023-12-04T13:13:58;4.78;;;1.65;;
77736;SDS011;66903;59.926;30.404;2023-12-04T13:19:09;5.78;;;1.80;;
77736;SDS011;66903;59.926;30.404;2023-12-04T13:24:20;6.28;;;2.30;;
77736;SDS011;66903;59.926;30.404;2023-12-04T13:29:31;6.18;;;2.50;;
77736;SDS011;66903;59.926;30.404;2023-12-04T13:34:43;5.78;;;2.08;;
77736;SDS011;66903;59.926;30.404;2023-12-04T13:39:53;6.18;;;2.25;;
77736;SDS011;66903;59.926;30.404;2023-12-04T13:45:16;5.63;;;2.08;;
77736;SDS011;66903;59.926;30.404;2023-12-04T13:50:27;5.93;;;2.28;;
77736;SDS011;66903;59.926;30.404;2023-12-04T13:55:38;5.82;;;1.80;;
77736;SDS011;66903;59.926;30.404;2023-12-04T14:01:20;15.85;;;2.38;;
77736;SDS011;66903;59.926;30.404;2023-12-04T14:06:36;4.60;;;1.73;;
77736;SDS011;66903;59.926;30.404;2023-12-04T14:11:47;5.40;;;1.70;;
77736;SDS011;66903;59.926;30.404;2023-12-04T14:16:58;5.40;;;1.80;;
77736;SDS011;66903;59.926;30.404;2023-12-04T14:22:10;6.63;;;2.10;;
77736;SDS011;66903;59.926;30.404;2023-12-04T14:27:21;7.60;;;2.05;;
77736;SDS011;66903;59.926;30.404;2023-12-04T14:32:31;5.03;;;2.17;;
77736;SDS011;66903;59.926;30.404;2023-12-04T14:37:42;4.85;;;1.90;;
77736;SDS011;66903;59.926;30.404;2023-12-04T14:42:53;5.95;;;2.47;;
77736;SDS011;66903;59.926;30.404;2023-12-04T14:48:04;6.10;;;2.00;;
77736;SDS011;66903;59.926;30.404;2023-12-04T14:53:17;4.93;;;2.35;;
77736;SDS011;66903;59.926;30.404;2023-12-04T14:58:41;4.55;;;2.08;;
77736;SDS011;66903;59.926;30.404;2023-12-04T15:03:54;4.95;;;1.90;;
77736;SDS011;66903;59.926;30.404;2023-12-04T15:09:24;6.40;;;2.00;;
77736;SDS011;66903;59.926;30.404;2023-12-04T15:14:37;4.97;;;2.10;;
77736;SDS011;66903;59.926;30.404;2023-12-04T15:20:06;5.97;;;2.15;;
77736;SDS011;66903;59.926;30.404;2023-12-04T15:25:20;8.40;;;1.77;;
77736;SDS011;66903;59.926;30.404;2023-12-04T15:30:31;4.75;;;2.00;;
77736;SDS011;66903;59.926;30.404;2023-12-04T15:35:42;5.30;;;1.80;;
77736;SDS011;66903;59.926;30.404;2023-12-04T15:40:53;6.75;;;2.10;;
77736;SDS011;66903;59.926;30.404;2023-12-04T15:46:04;4.55;;;2.03;;
77736;SDS011;66903;59.926;30.404;2023-12-04T15:51:16;4.82;;;1.80;;
77736;SDS011;66903;59.926;30.404;2023-12-04T15:56:27;5.35;;;1.80;;
77736;SDS011;66903;59.926;30.404;2023-12-04T16:01:38;5.65;;;2.00;;
77736;SDS011;66903;59.926;30.404;2023-12-04T16:06:49;5.45;;;2.33;;
77736;SDS011;66903;59.926;30.404;2023-12-04T16:11:59;6.88;;;2.40;;
77736;SDS011;66903;59.926;30.404;2023-12-04T16:17:10;7.35;;;2.85;;
77736;SDS011;66903;59.926;30.404;2023-12-04T16:22:21;10.13;;;2.55;;
77736;SDS011;66903;59.926;30.404;2023-12-04T16:27:32;11.75;;;3.05;;
77736;SDS011;66903;59.926;30.404;2023-12-04T16:32:43;9.38;;;2.78;;
77736;SDS011;66903;59.926;30.404;2023-12-04T16:37:54;5.93;;;2.47;;
77736;SDS011;66903;59.926;30.404;2023-12-04T16:43:07;8.85;;;2.50;;
77736;SDS011;66903;59.926;30.404;2023-12-04T16:48:18;6.28;;;2.70;;
77736;SDS011;66903;59.926;30.404;2023-12-04T16:53:28;7.30;;;2.53;;
77736;SDS011;66903;59.926;30.404;2023-12-04T16:58:42;5.85;;;2.33;;
77736;SDS011;66903;59.926;30.404;2023-12-04T17:03:53;7.53;;;2.40;;
77736;SDS011;66903;59.926;30.404;2023-12-04T17:09:04;8.30;;;2.97;;
77736;SDS011;66903;59.926;30.404;2023-12-04T17:14:16;6.20;;;2.28;;
77736;SDS011;66903;59.926;30.404;2023-12-04T17:19:27;10.55;;;2.42;;
77736;SDS011;66903;59.926;30.404;2023-12-04T17:24:41;9.48;;;2.60;;
77736;SDS011;66903;59.926;30.404;2023-12-04T17:29:52;6.97;;;2.60;;
77736;SDS011;66903;59.926;30.404;2023-12-04T17:35:04;12.52;;;2.65;;
77736;SDS011;66903;59.926;30.404;2023-12-04T17:40:16;7.38;;;2.45;;
77736;SDS011;66903;59.926;30.404;2023-12-04T17:45:27;6.15;;;2.72;;
77736;SDS011;66903;59.926;30.404;2023-12-04T17:50:42;6.35;;;2.40;;
77736;SDS011;66903;59.926;30.404;2023-12-04T17:55:53;9.15;;;2.97;;
77736;SDS011;66903;59.926;30.404;2023-12-04T18:01:04;6.25;;;2.50;;
77736;SDS011;66903;59.926;30.404;2023-12-04T18:06:24;6.35;;;2.60;;
77736;SDS011;66903;59.926;30.404;2023-12-04T18:11:38;5.72;;;2.47;;
77736;SDS011;66903;59.926;30.404;2023-12-04T18:16:49;6.10;;;2.05;;
77736;SDS011;66903;59.926;30.404;2023-12-04T18:22:00;4.78;;;2.10;;
77736;SDS011;66903;59.926;30.404;2023-12-04T18:27:11;5.88;;;2.28;;
77736;SDS011;66903;59.926;30.404;2023-12-04T18:32:24;5.90;;;2.13;;
77736;SDS011;66903;59.926;30.404;2023-12-04T18:37:41;7.55;;;2.70;;
77736;SDS011;66903;59.926;30.404;2023-12-04T18:43:01;7.80;;;2.78;;
77736;SDS011;66903;59.926;30.404;2023-12-04T18:48:13;6.70;;;2.60;;
77736;SDS011;66903;59.926;30.404;2023-12-04T18:53:29;5.75;;;2.17;;
77736;SDS011;66903;59.926;30.404;2023-12-04T18:58:42;6.18;;;2.20;;
77736;SDS011;66903;59.926;30.404;2023-12-04T19:03:53;7.45;;;2.50;;
77736;SDS011;66903;59.926;30.404;2023-12-04T19:09:04;6.85;;;2.85;;
77736;SDS011;66903;59.926;30.404;2023-12-04T19:14:15;19.15;;;3.30;;
77736;SDS011;66903;59.926;30.404;2023-12-04T19:19:26;6.55;;;2.42;;
77736;SDS011;66903;59.926;30.404;2023-12-04T19:24:37;7.95;;;2.42;;
77736;SDS011;66903;59.926;30.404;2023-12-04T19:29:47;5.22;;;2.25;;
77736;SDS011;66903;59.926;30.404;2023-12-04T19:34:58;6.85;;;2.38;;
77736;SDS011;66903;59.926;30.404;2023-12-04T19:40:14;6.80;;;2.70;;
77736;SDS011;66903;59.926;30.404;2023-12-04T19:45:25;5.35;;;2.13;;
77736;SDS011;66903;59.926;30.404;2023-12-04T19:50:37;8.43;;;2.28;;
77736;SDS011;66903;59.926;30.404;2023-12-04T19:55:49;6.10;;;2.55;;
77736;SDS011;66903;59.926;30.404;2023-12-04T20:01:00;5.93;;;2.40;;
77736;SDS011;66903;59.926;30.404;2023-12-04T20:06:11;6.75;;;2.50;;
77736;SDS011;66903;59.926;30.404;2023-12-04T20:11:22;5.93;;;2.05;;
77736;SDS011;66903;59.926;30.404;2023-12-04T20:16:33;6.70;;;2.70;;
77736;SDS011;66903;59.926;30.404;2023-12-04T20:21:44;5.53;;;2.33;;
77736;SDS011;66903;59.926;30.404;2023-12-04T20:26:54;5.43;;;2.40;;
77736;SDS011;66903;59.926;30.404;2023-12-04T20:32:07;4.47;;;1.92;;
77736;SDS011;66903;59.926;30.404;2023-12-04T20:37:18;7.65;;;2.50;;
77736;SDS011;66903;59.926;30.404;2023-12-04T20:42:29;5.63;;;2.10;;
77736;SDS011;66903;59.926;30.404;2023-12-04T20:47:40;5.97;;;2.25;;
77736;SDS011;66903;59.926;30.404;2023-12-04T20:52:51;7.45;;;2.25;;
77736;SDS011;66903;59.926;30.404;2023-12-04T20:58:05;5.68;;;2.25;;
77736;SDS011;66903;59.926;30.404;2023-12-04T21:03:16;4.47;;;2.00;;
77736;SDS011;66903;59.926;30.404;2023-12-04T21:08:27;5.63;;;2.35;;
77736;SDS011;66903;59.926;30.404;2023-12-04T21:13:38;4.68;;;1.95;;
77736;SDS011;66903;59.926;30.404;2023-12-04T21:18:49;4.88;;;1.90;;
77736;SDS011;66903;59.926;30.404;2023-12-04T21:24:01;6.85;;;2.15;;
77736;SDS011;66903;59.926;30.404;2023-12-04T21:29:11;4.90;;;1.85;;
77736;SDS011;66903;59.926;30.404;2023-12-04T21:34:23;9.15;;;2.13;;
77736;SDS011;66903;59.926;30.404;2023-12-04T21:39:33;4.90;;;2.03;;
77736;SDS011;66903;59.926;30.404;2023-12-04T21:44:44;5.95;;;2.15;;
77736;SDS011;66903;59.926;30.404;2023-12-04T21:49:55;4.65;;;1.92;;
77736;SDS011;66903;59.926;30.404;2023-12-04T21:55:06;4.45;;;1.90;;
77736;SDS011;66903;59.926;30.404;2023-12-04T22:00:18;4.75;;;1.83;;
77736;SDS011;66903;59.926;30.404;2023-12-04T22:05:30;4.68;;;1.90;;
77736;SDS011;66903;59.926;30.404;2023-12-04T22:10:41;5.72;;;2.00;;
77736;SDS011;66903;59.926;30.404;2023-12-04T22:15:52;5.57;;;2.33;;
77736;SDS011;66903;59.926;30.404;2023-12-04T22:21:03;5.40;;;1.88;;
77736;SDS011;66903;59.926;30.404;2023-12-04T22:26:14;5.22;;;2.05;;
77736;SDS011;66903;59.926;30.404;2023-12-04T22:31:25;5.25;;;1.83;;
77736;SDS011;66903;59.926;30.404;2023-12-04T22:36:36;4.68;;;1.85;;
77736;SDS011;66903;59.926;30.404;2023-12-04T22:41:46;5.45;;;2.10;;
77736;SDS011;66903;59.926;30.404;2023-12-04T22:46:57;5.03;;;1.77;;
77736;SDS011;66903;59.926;30.404;2023-12-04T22:52:08;5.82;;;2.20;;
77736;SDS011;66903;59.926;30.404;2023-12-04T22:57:19;4.53;;;1.75;;
77736;SDS011;66903;59.926;30.404;2023-12-04T23:02:30;5.07;;;2.10;;
77736;SDS011;66903;59.926;30.404;2023-12-04T23:07:41;5.63;;;1.83;;
77736;SDS011;66903;59.926;30.404;2023-12-04T23:12:52;4.60;;;1.60;;
77736;SDS011;66903;59.926;30.404;2023-12-04T23:18:06;4.90;;;1.65;;
77736;SDS011;66903;59.926;30.404;2023-12-04T23:23:17;5.28;;;2.05;;
77736;SDS011;66903;59.926;30.404;2023-12-04T23:28:28;5.35;;;2.00;;
77736;SDS011;66903;59.926;30.404;2023-12-04T23:33:39;6.82;;;2.25;;
77736;SDS011;66903;59.926;30.404;2023-12-04T23:38:50;5.07;;;1.75;;
77736;SDS011;66903;59.926;30.404;2023-12-04T23:44:01;5.22;;;2.00;;
77736;SDS011;66903;59.926;30.404;2023-12-04T23:49:12;6.13;;;2.03;;
77736;SDS011;66903;59.926;30.404;2023-12-04T23:54:23;6.05;;;2.22;;
77736;SDS011;66903;59.926;30.404;2023-12-04T23:59:34;4.65;;;2.03;;
